createdAt,value
2022-08-17T00:02:21.778Z,23.91
2022-08-17T00:04:53.788Z,23.93
2022-08-17T00:07:20.258Z,23.93
2022-08-17T00:09:46.759Z,23.96
2022-08-17T00:12:42.807Z,23.98
2022-08-17T00:14:59.764Z,23.97
2022-08-17T00:17:26.225Z,23.96
2022-08-17T00:19:52.704Z,23.95
2022-08-17T00:22:35.265Z,23.93
2022-08-17T00:25:07.155Z,23.90
2022-08-17T00:27:33.688Z,23.88
2022-08-17T00:30:00.352Z,23.87
2022-08-17T00:33:14.003Z,23.84
2022-08-17T00:35:19.218Z,23.80
2022-08-17T00:37:45.713Z,23.77
2022-08-17T00:40:15.065Z,23.75
2022-08-17T00:42:43.494Z,23.71
2022-08-17T00:45:13.558Z,23.72
2022-08-17T00:47:40.597Z,23.66
2022-08-17T00:50:12.868Z,23.69
2022-08-17T00:52:54.841Z,23.67
2022-08-17T00:55:23.849Z,23.62
2022-08-17T00:57:56.369Z,23.56
2022-08-17T01:00:29.937Z,23.54
2022-08-17T01:03:03.227Z,23.49
2022-08-17T01:05:32.255Z,23.47
2022-08-17T01:08:02.568Z,23.50
2022-08-17T01:11:00.186Z,23.44
2022-08-17T01:13:35.487Z,23.39
2022-08-17T01:16:08.465Z,23.35
2022-08-17T01:18:35.346Z,23.33
2022-08-17T01:21:07.895Z,23.30
2022-08-17T01:23:34.479Z,23.28
2022-08-17T01:26:03.085Z,23.26
2022-08-17T01:28:52.266Z,23.20
2022-08-17T01:31:19.499Z,23.16
2022-08-17T01:33:46.015Z,23.09
2022-08-17T01:36:12.504Z,23.04
2022-08-17T01:38:39.586Z,22.97
2022-08-17T01:41:12.247Z,22.96
2022-08-17T01:43:47.726Z,22.90
2022-08-17T01:46:21.054Z,22.86
2022-08-17T01:48:47.763Z,22.83
2022-08-17T01:51:15.953Z,22.81
2022-08-17T01:53:48.546Z,22.73
2022-08-17T01:56:18.338Z,22.66
2022-08-17T01:58:45.643Z,22.65
2022-08-17T02:01:14.737Z,22.61
2022-08-17T02:03:42.014Z,22.57
2022-08-17T02:06:28.077Z,22.53
2022-08-17T02:09:02.599Z,22.49
2022-08-17T02:11:30.808Z,22.45
2022-08-17T02:14:03.134Z,22.43
2022-08-17T02:16:37.844Z,22.42
2022-08-17T02:19:07.735Z,22.36
2022-08-17T02:21:35.826Z,22.31
2022-08-17T02:24:03.286Z,22.29
2022-08-17T02:26:29.990Z,22.25
2022-08-17T02:28:56.484Z,22.24
2022-08-17T02:31:23.010Z,22.22
2022-08-17T02:34:00.337Z,22.20
2022-08-17T02:36:34.885Z,22.19
2022-08-17T02:39:04.797Z,22.19
2022-08-17T02:41:31.823Z,22.17
2022-08-17T02:43:58.716Z,22.13
2022-08-17T02:46:25.635Z,22.12
2022-08-17T02:48:52.154Z,22.11
2022-08-17T02:51:18.618Z,22.09
2022-08-17T02:53:45.121Z,22.02
2022-08-17T02:56:11.619Z,21.99
2022-08-17T02:58:38.120Z,21.93
2022-08-17T03:01:08.217Z,21.91
2022-08-17T03:03:36.613Z,21.87
2022-08-17T03:06:05.010Z,21.85
2022-08-17T03:08:31.715Z,21.80
2022-08-17T03:10:58.248Z,21.78
2022-08-17T03:13:24.742Z,21.69
2022-08-17T03:15:51.437Z,21.63
2022-08-17T03:18:25.627Z,21.69
2022-08-17T03:20:58.610Z,21.70
2022-08-17T03:23:27.388Z,21.70
2022-08-17T03:25:54.420Z,21.67
2022-08-17T03:28:21.892Z,21.63
2022-08-17T03:30:49.028Z,21.59
2022-08-17T03:33:16.210Z,21.53
2022-08-17T03:35:43.306Z,21.52
2022-08-17T03:38:11.603Z,21.53
2022-08-17T03:40:59.010Z,21.54
2022-08-17T03:43:27.056Z,21.50
2022-08-17T03:46:27.571Z,21.45
2022-08-17T03:49:15.331Z,21.41
2022-08-17T03:52:00.258Z,21.35
2022-08-17T03:54:45.215Z,21.32
2022-08-17T03:57:12.421Z,21.32
2022-08-17T03:59:39.732Z,21.33
2022-08-17T04:02:16.394Z,21.33
2022-08-17T04:04:42.870Z,21.30
2022-08-17T04:07:09.443Z,21.26
2022-08-17T04:09:36.584Z,21.25
2022-08-17T04:12:04.878Z,21.24
2022-08-17T04:14:36.706Z,21.24
2022-08-17T04:17:17.968Z,21.26
2022-08-17T04:19:44.966Z,21.27
2022-08-17T04:22:11.456Z,21.25
2022-08-17T04:24:57.968Z,21.21
2022-08-17T04:27:25.373Z,21.20
2022-08-17T04:29:55.529Z,21.18
2022-08-17T04:33:00.689Z,21.19
2022-08-17T04:35:09.716Z,21.15
2022-08-17T04:37:36.301Z,21.14
2022-08-17T04:40:22.231Z,21.17
2022-08-17T04:43:08.713Z,21.15
2022-08-17T04:45:55.434Z,21.17
2022-08-17T04:48:35.783Z,21.19
2022-08-17T04:51:10.639Z,21.17
2022-08-17T04:53:38.949Z,21.15
2022-08-17T04:56:06.225Z,21.13
2022-08-17T04:58:32.759Z,21.16
2022-08-17T05:00:59.474Z,21.15
2022-08-17T05:03:26.306Z,21.17
2022-08-17T05:05:53.702Z,21.20
2022-08-17T05:08:21.505Z,21.22
2022-08-17T05:10:48.679Z,21.22
2022-08-17T05:13:18.467Z,21.25
2022-08-17T05:15:47.877Z,21.31
2022-08-17T05:18:15.259Z,21.34
2022-08-17T05:20:42.360Z,21.38
2022-08-17T05:23:12.420Z,21.43
2022-08-17T05:25:47.428Z,21.49
2022-08-17T05:28:16.025Z,21.56
2022-08-17T05:30:43.204Z,21.61
2022-08-17T05:33:17.240Z,21.72
2022-08-17T05:35:47.146Z,21.78
2022-08-17T05:38:15.043Z,21.83
2022-08-17T05:40:42.546Z,21.87
2022-08-17T05:43:11.946Z,21.93
2022-08-17T05:45:55.848Z,21.98
2022-08-17T05:48:39.621Z,22.06
2022-08-17T05:51:06.882Z,22.19
2022-08-17T05:53:54.952Z,22.27
2022-08-17T05:56:47.460Z,22.39
2022-08-17T05:59:40.370Z,22.50
2022-08-17T06:02:19.207Z,22.62
2022-08-17T06:05:22.535Z,22.74
2022-08-17T06:08:26.856Z,22.85
2022-08-17T06:11:19.995Z,22.99
2022-08-17T06:14:04.327Z,23.13
2022-08-17T06:16:38.708Z,23.26
2022-08-17T06:19:40.092Z,23.42
2022-08-17T06:22:08.658Z,23.57
2022-08-17T06:24:41.963Z,23.68
2022-08-17T06:27:36.543Z,23.84
2022-08-17T06:30:12.763Z,23.98
2022-08-17T06:32:43.705Z,24.14
2022-08-17T06:35:27.719Z,24.29
2022-08-17T06:38:38.074Z,24.47
2022-08-17T06:41:13.085Z,24.60
2022-08-17T06:44:01.228Z,24.72
2022-08-17T06:46:40.301Z,24.81
2022-08-17T06:49:26.217Z,24.94
2022-08-17T06:52:00.430Z,25.03
2022-08-17T06:54:37.720Z,25.08
2022-08-17T06:57:09.988Z,25.17
2022-08-17T06:59:55.611Z,25.20
2022-08-17T07:02:52.742Z,25.25
2022-08-17T07:05:26.202Z,25.32
2022-08-17T07:08:09.202Z,25.36
2022-08-17T07:10:53.034Z,25.42
2022-08-17T07:13:25.443Z,25.48
2022-08-17T07:15:57.288Z,25.54
2022-08-17T07:18:26.914Z,25.61
2022-08-17T07:21:00.117Z,25.66
2022-08-17T07:23:39.411Z,25.75
2022-08-17T07:26:08.163Z,25.77
2022-08-17T07:28:36.376Z,25.34
2022-08-17T07:31:04.676Z,25.32
2022-08-17T07:33:34.021Z,25.16
2022-08-17T07:36:01.567Z,25.36
2022-08-17T07:38:33.250Z,25.39
2022-08-17T07:41:07.201Z,25.33
2022-08-17T07:43:36.722Z,25.43
2022-08-17T07:46:21.656Z,25.56
2022-08-17T07:48:52.453Z,25.74
2022-08-17T07:51:21.740Z,25.85
2022-08-17T07:53:48.490Z,25.83
2022-08-17T07:56:38.981Z,25.83
2022-08-17T07:59:16.340Z,25.94
2022-08-17T08:01:47.237Z,25.92
2022-08-17T08:07:20.497Z,26.27
2022-08-17T08:10:02.491Z,26.26
2022-08-17T08:12:40.558Z,26.39
2022-08-17T08:15:19.300Z,26.37
2022-08-17T08:17:55.856Z,26.58
2022-08-17T08:20:37.677Z,26.52
2022-08-17T08:23:37.239Z,26.69
2022-08-17T08:26:26.355Z,26.61
2022-08-17T08:29:12.500Z,26.68
2022-08-17T08:31:51.391Z,26.81
2022-08-17T08:35:02.454Z,26.98
2022-08-17T08:37:48.448Z,27.14
2022-08-17T08:40:33.610Z,27.02
2022-08-17T08:43:03.903Z,27.13
2022-08-17T08:46:20.649Z,27.13
2022-08-17T08:49:11.997Z,26.90
2022-08-17T08:51:58.752Z,27.01
2022-08-17T08:54:34.483Z,26.92
2022-08-17T08:57:26.790Z,26.79
2022-08-17T09:00:20.078Z,26.76
2022-08-17T09:02:49.276Z,26.99
2022-08-17T09:05:48.414Z,27.06
2022-08-17T09:08:52.835Z,27.19
2022-08-17T09:11:28.452Z,27.30
2022-08-17T09:13:57.951Z,27.29
2022-08-17T09:16:36.774Z,27.18
2022-08-17T09:19:30.296Z,27.44
2022-08-17T09:22:11.019Z,27.50
2022-08-17T09:24:40.188Z,27.46
2022-08-17T09:27:14.162Z,27.23
2022-08-17T09:29:51.535Z,27.26
2022-08-17T09:32:42.605Z,27.17
2022-08-17T09:35:13.812Z,27.14
2022-08-17T09:37:43.221Z,27.21
2022-08-17T09:40:17.621Z,27.19
2022-08-17T09:42:48.857Z,27.32
2022-08-17T09:45:18.377Z,27.27
2022-08-17T09:47:54.336Z,27.22
2022-08-17T09:51:03.686Z,27.21
2022-08-17T09:53:15.138Z,27.28
2022-08-17T09:55:58.487Z,27.29
2022-08-17T09:58:38.960Z,27.36
2022-08-17T10:01:21.702Z,27.44
2022-08-17T10:04:04.868Z,27.42
2022-08-17T10:06:47.684Z,27.28
2022-08-17T10:09:22.404Z,27.20
2022-08-17T10:12:20.059Z,27.23
2022-08-17T10:14:53.388Z,27.33
2022-08-17T10:17:39.813Z,27.34
2022-08-17T10:20:33.207Z,27.40
2022-08-17T10:23:33.365Z,27.32
2022-08-17T10:26:16.785Z,27.19
2022-08-17T10:28:59.300Z,27.07
2022-08-17T10:31:42.374Z,27.10
2022-08-17T10:34:27.852Z,26.97
2022-08-17T10:37:00.546Z,26.94
2022-08-17T10:39:32.952Z,26.92
2022-08-17T10:42:15.351Z,26.96
2022-08-17T10:45:25.904Z,26.73
2022-08-17T10:48:04.833Z,26.69
2022-08-17T10:50:59.924Z,26.67
2022-08-17T10:53:32.605Z,26.66
2022-08-17T10:56:14.459Z,26.67
2022-08-17T10:59:00.943Z,26.60
2022-08-17T11:01:37.945Z,26.47
2022-08-17T11:04:21.319Z,26.34
2022-08-17T11:07:25.704Z,26.26
2022-08-17T11:10:18.141Z,26.18
2022-08-17T11:13:01.262Z,26.17
2022-08-17T11:16:04.727Z,26.14
2022-08-17T11:18:52.568Z,26.02
2022-08-17T11:21:21.853Z,25.94
2022-08-17T11:24:12.662Z,25.89
2022-08-17T11:26:46.214Z,25.74
2022-08-17T11:29:26.591Z,25.80
2022-08-17T11:32:07.778Z,25.68
2022-08-17T11:34:39.583Z,25.59
2022-08-17T11:37:06.236Z,25.49
2022-08-17T11:39:44.952Z,25.47
2022-08-17T11:42:37.491Z,25.51
2022-08-17T11:45:32.319Z,25.29
2022-08-17T11:48:33.536Z,25.37
2022-08-17T11:51:35.212Z,25.29
2022-08-17T11:54:32.778Z,25.39
2022-08-17T11:56:54.403Z,25.48
2022-08-17T11:59:32.756Z,25.36
2022-08-17T12:02:34.678Z,25.51
2022-08-17T12:05:04.131Z,25.60
2022-08-17T12:07:42.460Z,25.53
2022-08-17T12:10:12.162Z,25.59
2022-08-17T12:12:44.084Z,25.66
2022-08-17T12:15:31.043Z,25.88
2022-08-17T12:17:59.042Z,25.81
2022-08-17T12:20:38.673Z,25.86
2022-08-17T12:23:33.851Z,26.03
2022-08-17T12:26:11.576Z,25.98
2022-08-17T12:28:44.020Z,25.99
2022-08-17T12:31:54.207Z,26.01
2022-08-17T12:34:26.565Z,26.14
2022-08-17T12:37:00.846Z,26.10
2022-08-17T12:39:29.201Z,26.32
2022-08-17T12:42:02.769Z,26.50
2022-08-17T12:44:36.002Z,26.78
2022-08-17T12:47:21.853Z,26.92
2022-08-17T12:49:54.458Z,27.25
2022-08-17T12:52:23.208Z,27.39
2022-08-17T12:54:59.602Z,27.30
2022-08-17T12:57:37.830Z,27.33
2022-08-17T13:00:07.515Z,27.48
2022-08-17T13:02:42.831Z,27.72
2022-08-17T13:05:20.222Z,28.40
2022-08-17T13:07:47.181Z,28.85
2022-08-17T13:10:18.343Z,28.78
2022-08-17T13:12:45.261Z,28.68
2022-08-17T13:15:25.079Z,28.73
2022-08-17T13:18:00.774Z,29.14
2022-08-17T13:20:27.562Z,30.00
2022-08-17T13:22:59.571Z,29.99
2022-08-17T13:25:27.862Z,30.11
2022-08-17T13:27:55.937Z,30.55
2022-08-17T13:30:28.245Z,30.46
2022-08-17T13:32:56.646Z,30.91
2022-08-17T13:35:40.568Z,31.49
2022-08-17T13:38:09.706Z,31.35
2022-08-17T13:40:46.127Z,32.18
2022-08-17T13:43:32.690Z,32.77
2022-08-17T13:46:09.732Z,32.77
2022-08-17T13:48:36.568Z,32.99
2022-08-17T13:51:13.613Z,33.35
2022-08-17T13:53:40.238Z,33.24
2022-08-17T13:56:37.249Z,32.65
2022-08-17T13:59:09.544Z,32.49
2022-08-17T14:01:43.059Z,32.63
2022-08-17T14:04:14.031Z,33.03
2022-08-17T14:07:08.497Z,31.92
2022-08-17T14:09:38.361Z,32.14
2022-08-17T14:12:10.552Z,30.96
2022-08-17T14:14:37.953Z,31.28
2022-08-17T14:17:05.083Z,31.76
2022-08-17T14:19:34.607Z,31.00
2022-08-17T14:22:01.866Z,30.96
2022-08-17T14:24:35.091Z,31.52
2022-08-17T14:27:03.583Z,32.28
2022-08-17T14:29:31.796Z,32.80
2022-08-17T14:32:04.262Z,33.17
2022-08-17T14:34:30.785Z,32.96
2022-08-17T14:36:57.308Z,32.52
2022-08-17T14:39:23.825Z,32.74
2022-08-17T14:41:50.577Z,32.21
2022-08-17T14:44:17.281Z,31.14
2022-08-17T14:46:45.083Z,31.10
2022-08-17T14:49:12.876Z,31.64
2022-08-17T14:51:43.860Z,32.27
2022-08-17T14:54:11.646Z,32.22
2022-08-17T14:57:02.891Z,32.20
2022-08-17T14:59:44.854Z,32.23
2022-08-17T15:02:12.055Z,31.33
2022-08-17T15:04:43.416Z,30.72
2022-08-17T15:07:11.951Z,30.73
2022-08-17T15:09:39.007Z,30.72
2022-08-17T15:12:06.661Z,30.46
2022-08-17T15:14:35.364Z,30.60
2022-08-17T15:17:03.405Z,30.55
2022-08-17T15:19:29.924Z,30.49
2022-08-17T15:21:56.399Z,30.57
2022-08-17T15:24:22.899Z,30.17
2022-08-17T15:26:49.832Z,29.82
2022-08-17T15:29:16.328Z,29.42
2022-08-17T15:31:43.416Z,29.35
2022-08-17T15:34:09.994Z,29.38
2022-08-17T15:36:37.034Z,29.48
2022-08-17T15:39:05.374Z,29.37
2022-08-17T15:41:31.941Z,29.34
2022-08-17T15:43:58.494Z,29.50
2022-08-17T15:46:26.255Z,29.63
2022-08-17T15:48:58.179Z,29.74
2022-08-17T15:51:27.001Z,29.70
2022-08-17T15:53:55.058Z,29.69
2022-08-17T15:56:22.560Z,29.44
2022-08-17T15:58:49.973Z,29.36
2022-08-17T16:03:01.048Z,29.19
2022-08-17T16:04:14.894Z,29.36
2022-08-17T16:06:52.420Z,29.52
2022-08-17T16:09:18.947Z,29.59
2022-08-17T16:11:45.999Z,29.11
2022-08-17T16:14:20.132Z,28.88
2022-08-17T16:16:46.611Z,28.68
2022-08-17T16:19:14.295Z,28.83
2022-08-17T16:21:42.391Z,28.96
2022-08-17T16:24:12.763Z,29.04
2022-08-17T16:26:40.045Z,28.38
2022-08-17T16:29:07.727Z,28.51
2022-08-17T16:31:36.074Z,28.38
2022-08-17T16:34:16.327Z,28.50
2022-08-17T16:36:54.937Z,28.88
2022-08-17T16:39:22.709Z,28.86
2022-08-17T16:41:49.536Z,28.73
2022-08-17T16:44:18.563Z,28.69
2022-08-17T16:46:46.710Z,28.71
2022-08-17T16:49:35.384Z,28.89
2022-08-17T16:52:03.299Z,28.58
2022-08-17T16:54:30.245Z,28.71
2022-08-17T16:56:56.821Z,28.81
2022-08-17T16:59:30.187Z,28.66
2022-08-17T17:02:09.928Z,28.30
2022-08-17T17:04:50.025Z,28.26
2022-08-17T17:07:41.161Z,28.22
2022-08-17T17:10:13.402Z,28.24
2022-08-17T17:13:03.943Z,28.16
2022-08-17T17:16:01.181Z,28.13
2022-08-17T17:18:43.424Z,28.10
2022-08-17T17:21:14.129Z,27.96
2022-08-17T17:24:01.100Z,27.91
2022-08-17T17:26:34.248Z,27.69
2022-08-17T17:29:09.786Z,27.65
2022-08-17T17:31:45.161Z,27.52
2022-08-17T17:34:15.831Z,27.53
2022-08-17T17:36:56.443Z,27.22
2022-08-17T17:39:46.317Z,27.39
2022-08-17T17:42:20.324Z,27.47
2022-08-17T17:44:51.978Z,27.47
2022-08-17T17:47:18.684Z,27.49
2022-08-17T17:49:48.658Z,27.52
2022-08-17T17:52:38.310Z,27.51
2022-08-17T17:55:39.315Z,27.46
2022-08-17T17:58:36.633Z,27.39
2022-08-17T18:01:09.205Z,27.26
2022-08-17T18:04:12.413Z,27.18
2022-08-17T18:07:15.287Z,27.09
2022-08-17T18:10:01.143Z,27.02
2022-08-17T18:12:37.291Z,26.97
2022-08-17T18:15:29.205Z,26.75
2022-08-17T18:18:15.970Z,26.62
2022-08-17T18:20:53.703Z,26.64
2022-08-17T18:23:27.568Z,26.49
2022-08-17T18:25:56.147Z,26.34
2022-08-17T18:28:33.077Z,26.35
2022-08-17T18:31:21.795Z,26.38
2022-08-17T18:33:52.517Z,26.37
2022-08-17T18:36:31.408Z,26.28
2022-08-17T18:39:26.283Z,26.09
2022-08-17T18:41:55.705Z,25.96
2022-08-17T18:44:31.405Z,25.85
2022-08-17T18:47:19.467Z,25.76
2022-08-17T18:49:56.366Z,25.70
2022-08-17T18:52:32.059Z,25.63
2022-08-17T18:55:01.671Z,25.43
2022-08-17T18:57:41.994Z,25.37
2022-08-17T19:00:16.875Z,25.26
2022-08-17T19:02:54.109Z,25.13
2022-08-17T19:05:26.564Z,25.09
2022-08-17T19:07:53.617Z,25.05
2022-08-17T19:10:31.631Z,25.07
2022-08-17T19:13:12.375Z,25.01
2022-08-17T19:15:44.996Z,24.92
2022-08-17T19:18:56.164Z,24.85
2022-08-17T19:21:30.439Z,24.87
2022-08-17T19:24:26.413Z,24.77
2022-08-17T19:27:00.309Z,24.74
2022-08-17T19:29:37.331Z,24.73
2022-08-17T19:32:07.588Z,24.70
2022-08-17T19:34:36.510Z,24.64
2022-08-17T19:37:12.217Z,24.62
2022-08-17T19:39:47.966Z,24.65
2022-08-17T19:42:22.062Z,24.70
2022-08-17T19:44:59.469Z,24.68
2022-08-17T19:47:55.359Z,24.65
2022-08-17T19:50:53.136Z,24.60
2022-08-17T19:54:04.936Z,24.62
2022-08-17T19:56:58.720Z,24.56
2022-08-17T19:59:48.925Z,24.54
2022-08-17T20:02:20.627Z,24.47
2022-08-17T20:04:50.500Z,24.37
2022-08-17T20:07:44.378Z,24.32
2022-08-17T20:10:18.801Z,24.29
2022-08-17T20:12:47.602Z,24.26
2022-08-17T20:15:27.171Z,24.19
2022-08-17T20:17:57.261Z,24.03
2022-08-17T20:21:20.453Z,23.90
2022-08-17T20:23:50.291Z,23.63
2022-08-17T20:26:28.173Z,23.53
2022-08-17T20:29:31.877Z,23.55
2022-08-17T20:32:15.037Z,23.48
2022-08-17T20:34:44.929Z,23.42
2022-08-17T20:37:17.096Z,23.36
2022-08-17T20:40:09.456Z,23.21
2022-08-17T20:42:36.653Z,23.22
2022-08-17T20:45:26.267Z,23.29
2022-08-17T20:51:09.515Z,23.35
2022-08-17T20:53:48.315Z,23.28
2022-08-17T20:56:49.215Z,23.28
2022-08-17T20:59:25.803Z,23.11
2022-08-17T21:02:17.630Z,23.27
2022-08-17T21:04:52.843Z,23.27
2022-08-17T21:07:41.043Z,23.27
2022-08-17T21:10:10.292Z,23.32
2022-08-17T21:13:00.152Z,23.34
2022-08-17T21:15:41.650Z,23.37
2022-08-17T21:18:30.180Z,23.36
2022-08-17T21:21:25.886Z,23.33
2022-08-17T21:24:30.151Z,23.31
2022-08-17T21:27:02.635Z,23.26
2022-08-17T21:29:34.111Z,23.24
2022-08-17T21:32:06.807Z,23.23
2022-08-17T21:34:43.905Z,23.18
2022-08-17T21:37:23.406Z,23.16
2022-08-17T21:40:01.271Z,23.11
2022-08-17T21:42:32.067Z,23.08
2022-08-17T21:45:35.515Z,22.98
2022-08-17T21:48:24.575Z,22.93
2022-08-17T21:51:01.711Z,22.87
2022-08-17T21:53:44.526Z,22.83
2022-08-17T21:56:12.974Z,22.80
2022-08-17T21:58:48.292Z,22.80
2022-08-17T22:01:37.425Z,22.68
2022-08-17T22:04:05.951Z,22.67
2022-08-17T22:06:56.649Z,22.66
2022-08-17T22:09:23.932Z,22.62
2022-08-17T22:11:55.192Z,22.57
2022-08-17T22:14:52.576Z,22.53
2022-08-17T22:17:41.176Z,22.48
2022-08-17T22:20:16.734Z,22.45
2022-08-17T22:23:04.597Z,22.40
2022-08-17T22:25:35.897Z,22.36
2022-08-17T22:28:09.059Z,22.35
2022-08-17T22:30:58.103Z,22.29
2022-08-17T22:33:40.300Z,22.17
2022-08-17T22:36:32.544Z,22.15
2022-08-17T22:39:02.064Z,22.12
2022-08-17T22:41:31.350Z,22.00
2022-08-17T22:44:12.859Z,21.93
2022-08-17T22:46:49.544Z,21.95
2022-08-17T22:49:26.633Z,21.89
2022-08-17T22:52:02.020Z,21.89
2022-08-17T22:54:48.048Z,21.89
2022-08-17T22:57:35.050Z,21.83
2022-08-17T23:00:01.800Z,21.74
2022-08-17T23:02:32.706Z,21.73
2022-08-17T23:05:15.795Z,21.68
2022-08-17T23:07:45.459Z,21.59
2022-08-17T23:10:12.903Z,21.52
2022-08-17T23:12:39.842Z,21.45
2022-08-17T23:15:16.363Z,21.49
2022-08-17T23:17:45.274Z,21.55
2022-08-17T23:20:14.945Z,21.55
2022-08-17T23:22:52.067Z,21.56
2022-08-17T23:25:28.910Z,21.56
2022-08-17T23:27:58.306Z,21.60
2022-08-17T23:30:25.594Z,21.60
2022-08-17T23:32:54.195Z,21.59
2022-08-17T23:35:40.187Z,21.54
2022-08-17T23:38:09.606Z,21.51
2022-08-17T23:40:37.658Z,21.53
2022-08-17T23:43:11.463Z,21.37
2022-08-17T23:45:57.385Z,21.30
2022-08-17T23:48:28.597Z,21.18
2022-08-17T23:51:11.049Z,21.14
2022-08-17T23:53:41.945Z,21.14
2022-08-17T23:56:11.325Z,21.19
2022-08-17T23:58:40.168Z,21.23
